Terminal Aerodrome Forecast
Issued by NWS

Home | Current Version | Previous Version | Graphics & Text | Print | Product List | Glossary On
Versions: 1 2 3 4 5 6 7 8 9 10 11 12 13 14 15 16 17 18 19 20 21 22
000
FTUS43 KLOT 241440 AAA
TAFDPA
TAF AMD
KDPA 241440Z 2415/2512 19013G21KT P6SM SCT200
     FM241800 20017G29KT P6SM SCT120
     FM250100 24014KT P6SM SCT080 BKN120
     FM250500 31014G22KT P6SM FEW250=

USA.gov is the U.S. government's official web portal to all federal, state and local government web resources and services.